createdAt,value
2022-10-05T00:01:34.663Z,6.7
2022-10-05T00:03:32.465Z,7.9
2022-10-05T00:05:33.683Z,7.5
2022-10-05T00:07:31.708Z,10.4
2022-10-05T00:09:34.001Z,6.1
2022-10-05T00:11:32.009Z,8.9
2022-10-05T00:13:33.014Z,9.1
2022-10-05T00:15:32.354Z,7.9
2022-10-05T00:17:32.413Z,7.8
2022-10-05T00:19:34.873Z,7.8
2022-10-05T00:21:33.123Z,7.5
2022-10-05T00:23:32.845Z,6.9
2022-10-05T00:25:33.028Z,7.1
2022-10-05T00:27:36.338Z,6.1
2022-10-05T00:29:33.962Z,8.7
2022-10-05T00:31:35.595Z,8.6
2022-10-05T00:33:33.635Z,7.3
2022-10-05T00:35:35.115Z,9
2022-10-05T00:37:33.829Z,9.1
2022-10-05T00:39:37.623Z,8.3
2022-10-05T00:41:45.771Z,8.9
2022-10-05T00:43:53.339Z,9.7
2022-10-05T00:45:40.984Z,8
2022-10-05T00:47:40.759Z,7.4
2022-10-05T00:49:53.307Z,9.8
2022-10-05T00:51:37.106Z,8.3
2022-10-05T00:53:43.576Z,10.9
2022-10-05T00:55:44.918Z,10
2022-10-05T00:57:47.005Z,8.9
2022-10-05T00:59:48.125Z,8.4
2022-10-05T01:01:43.243Z,7.9
2022-10-05T01:03:48.303Z,9.4
2022-10-05T01:05:50.852Z,7.6
2022-10-05T01:07:45.763Z,9
2022-10-05T01:09:44.175Z,11.8
2022-10-05T01:11:41.682Z,9.7
2022-10-05T01:13:47.965Z,5.6
2022-10-05T01:15:45.469Z,8.6
2022-10-05T01:17:42.974Z,8.1
2022-10-05T01:20:05.258Z,9.4
2022-10-05T01:21:44.973Z,10.6
2022-10-05T01:23:59.593Z,8.5
2022-10-05T01:25:49.348Z,8.9
2022-10-05T01:27:41.596Z,10
2022-10-05T01:29:43.884Z,8.8
2022-10-05T01:31:44.398Z,7.8
2022-10-05T01:33:43.203Z,8
2022-10-05T01:35:45.692Z,11.5
2022-10-05T01:37:50.127Z,6.2
2022-10-05T01:39:48.284Z,9.7
2022-10-05T01:41:51.695Z,9.3
2022-10-05T01:43:45.941Z,10
2022-10-05T01:45:51.111Z,7.8
2022-10-05T01:47:43.954Z,7.3
2022-10-05T01:49:46.981Z,9.7
2022-10-05T01:51:50.360Z,6.7
2022-10-05T01:53:49.764Z,8.2
2022-10-05T01:55:48.475Z,9.3
2022-10-05T01:57:53.999Z,8.2
2022-10-05T01:59:53.916Z,7.3
2022-10-05T02:01:47.233Z,9.8
2022-10-05T02:03:43.591Z,8.7
2022-10-05T02:05:46.395Z,8.5
2022-10-05T02:07:44.927Z,10.9
2022-10-05T02:09:48.925Z,9.3
2022-10-05T02:11:45.309Z,6.9
2022-10-05T02:13:45.736Z,7.6
2022-10-05T02:15:45.897Z,9
2022-10-05T02:17:45.511Z,9.2
2022-10-05T02:19:45.188Z,6.7
2022-10-05T02:21:46.731Z,9.9
2022-10-05T02:23:44.051Z,7.6
2022-10-05T02:25:46.428Z,8.1
2022-10-05T02:27:47.990Z,11.4
2022-10-05T02:29:45.369Z,10.1
2022-10-05T02:31:47.230Z,11.1
2022-10-05T02:33:46.588Z,9.8
2022-10-05T02:35:42.080Z,10.9
2022-10-05T02:37:55.793Z,9.5
2022-10-05T02:39:56.165Z,9.8
2022-10-05T02:41:50.813Z,10.9
2022-10-05T02:43:53.201Z,9.7
2022-10-05T02:45:55.424Z,10.5
2022-10-05T02:47:51.817Z,8.4
2022-10-05T02:49:51.140Z,11.4
2022-10-05T02:51:51.497Z,10.1
2022-10-05T02:53:56.654Z,9.7
2022-10-05T02:55:51.625Z,9
2022-10-05T02:57:48.701Z,11.3
2022-10-05T02:59:50.946Z,10.6
2022-10-05T03:01:48.948Z,11.1
2022-10-05T03:03:50.989Z,9.5
2022-10-05T03:05:50.652Z,9.6
2022-10-05T03:07:53.848Z,7.5
2022-10-05T03:09:52.203Z,5.3
2022-10-05T03:11:55.700Z,6.1
2022-10-05T03:13:52.767Z,9.4
2022-10-05T03:16:02.119Z,5.1
2022-10-05T03:17:52.190Z,6.3
2022-10-05T03:20:03.465Z,4.8
2022-10-05T03:21:57.196Z,5.9
2022-10-05T03:23:58.758Z,7.4
2022-10-05T03:26:02.337Z,7.2
2022-10-05T03:27:53.681Z,10.8
2022-10-05T03:29:55.416Z,6.1
2022-10-05T03:31:54.422Z,8.3
2022-10-05T03:33:51.438Z,6.2
2022-10-05T03:35:53.363Z,7.2
2022-10-05T03:37:53.221Z,6.8
2022-10-05T03:39:50.961Z,7.8
2022-10-05T03:41:52.174Z,9.6
2022-10-05T03:43:59.356Z,11.1
2022-10-05T03:45:50.618Z,16.2
2022-10-05T03:48:00.436Z,15.5
2022-10-05T03:49:58.070Z,8.8
2022-10-05T03:51:54.458Z,6.3
2022-10-05T03:53:54.036Z,7
2022-10-05T03:55:52.894Z,5.6
2022-10-05T03:57:50.766Z,7.8
2022-10-05T03:59:56.962Z,4.9
2022-10-05T04:01:52.036Z,7.7
2022-10-05T04:03:51.728Z,5.3
2022-10-05T04:05:51.330Z,6.3
2022-10-05T04:07:53.034Z,4.6
2022-10-05T04:09:52.697Z,11.2
2022-10-05T04:11:54.995Z,34.9
2022-10-05T04:13:54.216Z,14.8
2022-10-05T04:15:56.200Z,12.1
2022-10-05T04:17:53.462Z,7
2022-10-05T04:19:58.238Z,6.8
2022-10-05T04:21:53.510Z,6.7
2022-10-05T04:23:54.971Z,6.6
2022-10-05T04:25:53.887Z,4.4
2022-10-05T04:27:56.423Z,14.7
2022-10-05T04:29:54.993Z,5.7
2022-10-05T04:32:02.565Z,11.1
2022-10-05T04:33:59.680Z,4.4
2022-10-05T04:36:04.599Z,4.3
2022-10-05T04:37:58.580Z,7.2
2022-10-05T04:40:05.640Z,8.7
2022-10-05T04:42:03.142Z,7.8
2022-10-05T04:44:04.600Z,5.8
2022-10-05T04:46:08.406Z,9.9
2022-10-05T04:48:05.537Z,16.2
2022-10-05T04:50:07.163Z,6.2
2022-10-05T04:51:59.915Z,6.9
2022-10-05T04:53:56.742Z,6.1
2022-10-05T04:55:57.780Z,4.2
2022-10-05T04:58:00.249Z,8.1
2022-10-05T05:00:08.309Z,5.5
2022-10-05T05:02:03.553Z,4.2
2022-10-05T05:04:08.929Z,7.4
2022-10-05T05:06:17.790Z,5.8
2022-10-05T05:08:01.310Z,5.7
2022-10-05T05:10:13.187Z,6.6
2022-10-05T05:12:05.392Z,5.3
2022-10-05T05:14:14.466Z,6.2
2022-10-05T05:15:59.566Z,7.2
2022-10-05T05:18:05.981Z,6.4
2022-10-05T05:20:03.219Z,7
2022-10-05T05:22:01.007Z,9
2022-10-05T05:23:59.578Z,5.8
2022-10-05T05:26:02.596Z,6.6
2022-10-05T05:27:57.848Z,4.9
2022-10-05T05:30:01.697Z,6.9
2022-10-05T05:32:01.395Z,6
2022-10-05T05:34:04.897Z,12.9
2022-10-05T05:36:13.642Z,6.9
2022-10-05T05:38:04.915Z,8.1
2022-10-05T05:40:04.768Z,4.8
2022-10-05T05:42:00.345Z,21.3
2022-10-05T05:44:05.689Z,5.6
2022-10-05T05:46:00.096Z,5.3
2022-10-05T05:47:58.822Z,3.8
2022-10-05T05:50:10.605Z,5.7
2022-10-05T05:52:01.342Z,5.7
2022-10-05T05:54:13.034Z,4.3
2022-10-05T05:56:01.210Z,3.6
2022-10-05T05:57:59.950Z,3.7
2022-10-05T06:00:13.637Z,8.8
2022-10-05T06:02:03.995Z,6.6
2022-10-05T06:03:59.235Z,5.9
2022-10-05T06:06:01.322Z,4.7
2022-10-05T06:07:58.186Z,8.5
2022-10-05T06:10:06.831Z,5
2022-10-05T06:12:01.427Z,4.9
2022-10-05T06:14:00.016Z,5.8
2022-10-05T06:16:01.232Z,8.7
2022-10-05T06:18:00.885Z,8.6
2022-10-05T06:20:03.919Z,3.2
2022-10-05T06:22:03.021Z,6.8
2022-10-05T06:24:01.304Z,6.3
2022-10-05T06:26:11.837Z,4.7
2022-10-05T06:28:06.888Z,6.3
2022-10-05T06:30:05.162Z,8
2022-10-05T06:32:06.613Z,5
2022-10-05T06:34:05.950Z,5.4
2022-10-05T06:36:12.259Z,5.2
2022-10-05T06:38:23.150Z,2.9
2022-10-05T06:40:10.868Z,3.9
2022-10-05T06:42:35.766Z,6.9
2022-10-05T06:44:15.160Z,3.4
2022-10-05T06:46:19.712Z,5.7
2022-10-05T06:48:14.702Z,3.8
2022-10-05T06:50:08.226Z,3.8
2022-10-05T06:52:14.683Z,3.9
2022-10-05T06:54:07.522Z,6.6
2022-10-05T06:56:06.857Z,5.6
2022-10-05T06:58:11.547Z,3.4
2022-10-05T07:00:06.000Z,3.7
2022-10-05T07:02:10.540Z,4.4
2022-10-05T07:04:14.842Z,3.7
2022-10-05T07:06:09.775Z,6.2
2022-10-05T07:08:03.519Z,3.2
2022-10-05T07:10:16.710Z,4.6
2022-10-05T07:12:16.511Z,4.9
2022-10-05T07:14:13.306Z,5
2022-10-05T07:16:09.980Z,4
2022-10-05T07:18:19.243Z,3.5
2022-10-05T07:20:13.736Z,5.2
2022-10-05T07:22:23.867Z,3
2022-10-05T07:24:12.927Z,4.6
2022-10-05T07:26:07.435Z,3.6
2022-10-05T07:28:07.384Z,3.8
2022-10-05T07:30:05.284Z,2.6
2022-10-05T07:32:13.701Z,2.7
2022-10-05T07:34:08.390Z,2.5
2022-10-05T07:36:10.507Z,2.9
2022-10-05T07:38:10.608Z,4
2022-10-05T07:40:13.145Z,4.7
2022-10-05T07:42:15.606Z,8.6
2022-10-05T07:44:12.977Z,2.3
2022-10-05T07:46:11.665Z,2.3
2022-10-05T07:48:11.418Z,3
2022-10-05T07:50:12.234Z,4
2022-10-05T07:52:10.516Z,4.8
2022-10-05T07:54:16.230Z,5.5
2022-10-05T07:56:11.659Z,2.6
2022-10-05T07:58:16.094Z,3.8
2022-10-05T08:00:12.973Z,3
2022-10-05T08:02:15.625Z,13.2
2022-10-05T08:04:11.680Z,8.9
2022-10-05T08:06:08.577Z,4.9
2022-10-05T08:08:20.413Z,3.5
2022-10-05T08:10:20.684Z,5.6
2022-10-05T08:12:19.292Z,4.3
2022-10-05T08:14:16.345Z,3.9
2022-10-05T08:16:09.785Z,3.7
2022-10-05T08:18:13.872Z,4.4
2022-10-05T08:20:21.147Z,4
2022-10-05T08:22:11.041Z,3.2
2022-10-05T08:24:14.777Z,2.7
2022-10-05T08:26:17.906Z,3.9
2022-10-05T08:28:13.501Z,4.9
2022-10-05T08:30:11.217Z,2.9
2022-10-05T08:32:15.493Z,2.8
2022-10-05T08:34:20.159Z,2.8
2022-10-05T08:36:12.387Z,4.2
2022-10-05T08:38:13.439Z,2.8
2022-10-05T08:40:35.124Z,3.7
2022-10-05T08:42:34.813Z,3.3
2022-10-05T08:44:36.159Z,2.1
2022-10-05T08:46:25.182Z,2.7
2022-10-05T08:48:25.099Z,3.6
2022-10-05T08:50:22.334Z,2.3
2022-10-05T08:52:28.479Z,2.6
2022-10-05T08:54:26.740Z,6.7
2022-10-05T08:56:29.354Z,4.5
2022-10-05T08:58:27.882Z,2.6
2022-10-05T09:00:12.641Z,2.4
2022-10-05T09:02:22.296Z,2
2022-10-05T09:04:21.217Z,3.1
2022-10-05T09:06:31.080Z,3.8
2022-10-05T09:08:33.292Z,2.1
2022-10-05T09:10:42.556Z,3.6
2022-10-05T09:12:39.072Z,4.6
2022-10-05T09:14:23.886Z,4.1
2022-10-05T09:16:24.581Z,1.7
2022-10-05T09:18:36.612Z,3.2
2022-10-05T09:20:21.138Z,2.3
2022-10-05T09:22:15.669Z,1
2022-10-05T09:24:26.573Z,1.7
2022-10-05T09:26:41.742Z,2.9
2022-10-05T09:28:22.836Z,2.5
2022-10-05T09:30:19.630Z,3.2
2022-10-05T09:32:34.869Z,2.3
2022-10-05T09:34:37.115Z,1.4
2022-10-05T09:36:32.829Z,2.2
2022-10-05T09:38:25.392Z,2.2
2022-10-05T09:40:38.661Z,3.3
2022-10-05T09:42:32.106Z,2.1
2022-10-05T09:44:42.593Z,2.3
2022-10-05T09:46:36.762Z,2.7
2022-10-05T09:48:42.847Z,2.8
2022-10-05T09:50:45.704Z,2.7
2022-10-05T09:52:33.566Z,4
2022-10-05T09:54:43.545Z,2.9
2022-10-05T09:56:38.003Z,1.8
2022-10-05T09:58:49.176Z,4
2022-10-05T10:00:22.263Z,3.4
2022-10-05T10:02:24.298Z,3.7
2022-10-05T10:04:25.838Z,2.9
2022-10-05T10:06:24.489Z,4
2022-10-05T10:08:30.033Z,3
2022-10-05T10:10:32.954Z,5.3
2022-10-05T10:12:30.611Z,4.8
2022-10-05T10:14:31.401Z,4.9
2022-10-05T10:16:29.821Z,2.3
2022-10-05T10:18:34.804Z,1.4
2022-10-05T10:20:29.556Z,1.4
2022-10-05T10:22:30.401Z,3.2
2022-10-05T10:24:35.442Z,2.3
2022-10-05T10:26:35.492Z,2
2022-10-05T10:28:50.785Z,2.4
2022-10-05T10:30:43.862Z,2.2
2022-10-05T10:32:43.106Z,2.1
2022-10-05T10:34:46.392Z,2.2
2022-10-05T10:36:22.135Z,2.1
2022-10-05T10:38:37.582Z,5.6
2022-10-05T10:40:29.349Z,6.4
2022-10-05T10:42:33.263Z,3.9
2022-10-05T10:44:47.194Z,5.6
2022-10-05T10:46:33.915Z,5.8
2022-10-05T10:48:47.532Z,3.9
2022-10-05T10:50:32.103Z,3.6
2022-10-05T10:52:33.331Z,4.6
2022-10-05T10:54:32.127Z,3
2022-10-05T10:56:32.543Z,3
2022-10-05T10:58:49.814Z,2.8
2022-10-05T11:00:33.502Z,2.1
2022-10-05T11:02:35.345Z,3.4
2022-10-05T11:04:47.468Z,2.7
2022-10-05T11:06:33.562Z,2.3
2022-10-05T11:08:46.640Z,3.3
2022-10-05T11:10:31.484Z,1.8
2022-10-05T11:12:50.003Z,2.6
2022-10-05T11:14:44.175Z,3.5
2022-10-05T11:16:53.070Z,4.3
2022-10-05T11:18:28.890Z,2.6
2022-10-05T11:20:44.824Z,1
2022-10-05T11:22:37.709Z,1.8
2022-10-05T11:24:46.093Z,3
2022-10-05T11:26:40.862Z,3
2022-10-05T11:28:45.857Z,1.8
2022-10-05T11:30:41.455Z,2.2
2022-10-05T11:32:47.297Z,2.1
2022-10-05T11:34:43.198Z,2
2022-10-05T11:36:38.212Z,5.1
2022-10-05T11:38:42.679Z,3.6
2022-10-05T11:40:37.997Z,5.6
2022-10-05T11:42:50.052Z,3.9
2022-10-05T11:44:51.067Z,2.4
2022-10-05T11:46:29.604Z,3.5
2022-10-05T11:48:36.226Z,3.6
2022-10-05T11:50:30.917Z,3.6
2022-10-05T11:53:56.097Z,5.6
2022-10-05T11:55:05.746Z,3
2022-10-05T11:56:31.325Z,2
2022-10-05T11:58:29.053Z,3.1
2022-10-05T12:00:36.996Z,3.2
2022-10-05T12:02:20.042Z,3.2
2022-10-05T12:02:51.796Z,3.4
2022-10-05T12:03:11.015Z,3.4
2022-10-05T12:04:36.121Z,4.1
2022-10-05T12:06:40.187Z,2.8
2022-10-05T12:08:34.963Z,2.9
2022-10-05T12:10:33.112Z,1.5
2022-10-05T12:12:32.810Z,2.7
2022-10-05T12:14:39.872Z,2.4
2022-10-05T12:16:30.844Z,1.9
2022-10-05T12:18:45.218Z,4.5
2022-10-05T12:20:32.692Z,2.7
2022-10-05T12:22:31.076Z,2.8
2022-10-05T12:24:43.404Z,1.2
2022-10-05T12:26:30.910Z,1.3
2022-10-05T12:28:32.808Z,3.9
2022-10-05T12:30:44.820Z,2.6
2022-10-05T12:32:32.991Z,4
2022-10-05T12:34:40.962Z,1.4
2022-10-05T12:36:52.434Z,3.2
2022-10-05T12:38:32.265Z,2.5
2022-10-05T12:40:33.472Z,2.4
2022-10-05T12:42:41.474Z,1.4
2022-10-05T12:44:43.523Z,1.2
2022-10-05T12:46:37.643Z,3.3
2022-10-05T12:48:45.859Z,2.6
2022-10-05T12:50:34.045Z,3.3
2022-10-05T12:52:41.555Z,1.4
2022-10-05T12:54:39.966Z,1.4
2022-10-05T12:56:36.808Z,3.6
2022-10-05T12:58:37.758Z,2.7
2022-10-05T13:00:31.462Z,3.2
2022-10-05T13:02:36.663Z,3.4
2022-10-05T13:04:40.172Z,1.8
2022-10-05T13:06:41.153Z,1.6
2022-10-05T13:08:35.711Z,2.7
2022-10-05T13:10:35.593Z,1.4
2022-10-05T13:12:37.421Z,2.8
2022-10-05T13:14:49.590Z,3.3
2022-10-05T13:16:37.878Z,4.7
2022-10-05T13:18:38.921Z,2.1
2022-10-05T13:20:33.325Z,6.3
2022-10-05T13:22:35.950Z,2.8
2022-10-05T13:24:33.810Z,4.1
2022-10-05T13:26:35.586Z,4.3
2022-10-05T13:28:36.897Z,2.8
2022-10-05T13:30:29.964Z,1.8
2022-10-05T13:32:35.508Z,4.2
2022-10-05T13:34:36.930Z,3.1
2022-10-05T13:36:41.551Z,2.8
2022-10-05T13:38:43.695Z,4.2
2022-10-05T13:40:34.952Z,4.6
2022-10-05T13:42:37.395Z,2.1
2022-10-05T13:44:36.147Z,3.8
2022-10-05T13:46:37.410Z,3.8
2022-10-05T13:48:53.520Z,2
2022-10-05T13:50:34.702Z,4.1
2022-10-05T13:52:42.025Z,3.9
2022-10-05T13:54:41.973Z,4.3
2022-10-05T13:56:36.384Z,3
2022-10-05T13:58:39.098Z,4.1
2022-10-05T14:00:40.889Z,2.7
2022-10-05T14:02:39.732Z,2.2
2022-10-05T14:04:44.425Z,3.4
2022-10-05T14:06:34.780Z,4.2
2022-10-05T14:08:34.992Z,3.9
2022-10-05T14:10:36.723Z,1.8
2022-10-05T14:12:39.877Z,2.3
2022-10-05T14:14:44.634Z,5.5
2022-10-05T14:16:32.850Z,3.4
2022-10-05T14:18:36.621Z,2.2
2022-10-05T14:20:32.875Z,2.3
2022-10-05T14:22:41.098Z,1.7
2022-10-05T14:24:44.749Z,2.5
2022-10-05T14:26:35.258Z,1.7
2022-10-05T14:28:35.210Z,1.6
2022-10-05T14:30:33.575Z,2
2022-10-05T14:32:47.361Z,6.3
2022-10-05T14:34:36.054Z,2.3
2022-10-05T14:36:36.649Z,6.1
2022-10-05T14:38:52.673Z,1.4
2022-10-05T14:40:36.037Z,1.4
2022-10-05T14:42:47.106Z,2.9
2022-10-05T14:44:36.027Z,3.2
2022-10-05T14:46:36.069Z,3.9
2022-10-05T14:48:41.755Z,2.2
2022-10-05T14:50:50.955Z,1.9
2022-10-05T14:52:34.790Z,3.6
2022-10-05T14:54:46.691Z,1.3
2022-10-05T14:56:45.081Z,4.1
2022-10-05T14:58:54.776Z,2.7
2022-10-05T15:00:46.833Z,3.2
2022-10-05T15:02:53.652Z,2.1
2022-10-05T15:04:41.417Z,1.9
2022-10-05T15:06:39.382Z,4.7
2022-10-05T15:08:50.069Z,2.9
2022-10-05T15:10:42.301Z,2.5
2022-10-05T15:12:40.258Z,3.5
2022-10-05T15:14:39.629Z,1.6
2022-10-05T15:16:36.844Z,1.6
2022-10-05T15:18:43.127Z,4.1
2022-10-05T15:20:48.441Z,3.5
2022-10-05T15:22:47.941Z,2.8
2022-10-05T15:24:43.921Z,1.9
2022-10-05T15:26:47.652Z,2.5
2022-10-05T15:28:43.950Z,1.6
2022-10-05T15:30:42.475Z,1.5
2022-10-05T15:32:49.115Z,1.2
2022-10-05T15:34:44.967Z,6.5
2022-10-05T15:36:42.481Z,2.7
2022-10-05T15:38:48.467Z,2
2022-10-05T15:40:41.983Z,3.3
2022-10-05T15:42:40.175Z,2.2
2022-10-05T15:44:53.744Z,6.2
2022-10-05T15:46:46.469Z,2
2022-10-05T15:48:47.289Z,2
2022-10-05T15:50:46.626Z,2
2022-10-05T15:52:45.839Z,2.2
2022-10-05T15:55:06.597Z,2.1
2022-10-05T15:56:40.558Z,2.4
2022-10-05T15:58:18.791Z,2.4
2022-10-05T15:58:37.676Z,2.9
2022-10-05T15:58:54.819Z,2.9
2022-10-05T16:00:46.228Z,2.3
2022-10-05T16:02:46.031Z,4.3
2022-10-05T16:04:47.247Z,2.5
2022-10-05T16:06:45.488Z,3.6
2022-10-05T16:08:50.167Z,3.9
2022-10-05T16:10:43.581Z,2.2
2022-10-05T16:12:50.339Z,5.3
2022-10-05T16:14:50.924Z,6
2022-10-05T16:16:46.506Z,3.3
2022-10-05T16:18:52.652Z,1.4
2022-10-05T16:20:47.203Z,3.2
2022-10-05T16:22:46.118Z,2.1
2022-10-05T16:24:54.546Z,3.5
2022-10-05T16:26:55.922Z,2.5
2022-10-05T16:28:51.757Z,2.2
2022-10-05T16:30:53.108Z,3.8
2022-10-05T16:32:45.721Z,2.8
2022-10-05T16:34:53.878Z,3.7
2022-10-05T16:36:49.543Z,2.6
2022-10-05T16:38:48.934Z,1.8
2022-10-05T16:40:49.200Z,4.6
2022-10-05T16:42:55.944Z,2.6
2022-10-05T16:44:55.909Z,3.3
2022-10-05T16:46:52.820Z,2.7
2022-10-05T16:48:11.744Z,2.7
2022-10-05T16:48:24.123Z,2.7
2022-10-05T16:48:50.624Z,3
2022-10-05T16:50:50.730Z,3.6
2022-10-05T16:52:45.558Z,3.5
2022-10-05T16:54:47.627Z,2.2
2022-10-05T16:56:44.648Z,3.9
2022-10-05T16:58:57.301Z,1.6
2022-10-05T17:00:56.404Z,3
2022-10-05T17:03:02.420Z,5.2
2022-10-05T17:04:49.731Z,2.2
2022-10-05T17:06:58.099Z,2.3
2022-10-05T17:09:01.287Z,4.2
2022-10-05T17:10:54.662Z,5.2
2022-10-05T17:12:54.994Z,2.1
2022-10-05T17:14:57.357Z,4.4
2022-10-05T17:16:56.144Z,4.6
2022-10-05T17:19:16.293Z,6.9
2022-10-05T17:20:47.014Z,4.7
2022-10-05T17:22:50.831Z,2.8
2022-10-05T17:24:53.604Z,6.2
2022-10-05T17:26:58.410Z,6.8
2022-10-05T17:28:58.880Z,3.3
2022-10-05T17:30:49.783Z,3.3
2022-10-05T17:32:56.589Z,5.2
2022-10-05T17:35:15.996Z,4.1
2022-10-05T17:36:49.162Z,3.9
2022-10-05T17:38:51.860Z,5.9
2022-10-05T17:41:02.050Z,3.1
2022-10-05T17:42:48.195Z,4.6
2022-10-05T17:44:43.056Z,2.5
2022-10-05T17:46:44.743Z,4.6
2022-10-05T17:49:07.065Z,3
2022-10-05T17:50:45.735Z,3.5
2022-10-05T17:52:45.134Z,2.8
2022-10-05T17:55:12.828Z,2.8
2022-10-05T17:57:12.941Z,3.3
2022-10-05T17:59:00.755Z,5.3
2022-10-05T18:01:04.823Z,3
2022-10-05T18:02:44.483Z,1.9
2022-10-05T18:04:50.945Z,2.4
2022-10-05T18:06:46.423Z,2.4
2022-10-05T18:08:44.047Z,6.1
2022-10-05T18:11:12.428Z,1.7
2022-10-05T18:12:47.503Z,3
2022-10-05T18:15:01.930Z,2.3
2022-10-05T18:17:00.884Z,1.7
2022-10-05T18:18:57.881Z,2.7
2022-10-05T18:21:20.619Z,2.3
2022-10-05T18:22:45.663Z,2.3
2022-10-05T18:24:55.486Z,1.7
2022-10-05T18:26:57.075Z,3
2022-10-05T18:28:56.567Z,2.3
2022-10-05T18:31:03.878Z,1.8
2022-10-05T18:32:59.985Z,2.3
2022-10-05T18:34:59.737Z,3.9
2022-10-05T18:36:59.602Z,2.6
2022-10-05T18:38:54.939Z,5.7
2022-10-05T18:40:53.746Z,3.3
2022-10-05T18:42:58.755Z,3.2
2022-10-05T18:44:49.476Z,2.9
2022-10-05T18:46:54.013Z,3.6
2022-10-05T18:48:57.402Z,2.5
2022-10-05T18:50:53.219Z,3.8
2022-10-05T18:53:00.321Z,3.8
2022-10-05T18:54:58.153Z,5
2022-10-05T18:56:50.535Z,4
2022-10-05T18:58:57.190Z,3.2
2022-10-05T19:01:02.799Z,2.1
2022-10-05T19:02:52.786Z,3.3
2022-10-05T19:05:01.986Z,4.6
2022-10-05T19:06:54.053Z,2.9
2022-10-05T19:08:57.245Z,2.9
2022-10-05T19:10:53.114Z,2.6
2022-10-05T19:13:01.605Z,4.9
2022-10-05T19:14:57.581Z,3.9
2022-10-05T19:17:02.040Z,2.8
2022-10-05T19:19:00.926Z,5.4
2022-10-05T19:20:56.738Z,2.2
2022-10-05T19:23:02.917Z,3.6
2022-10-05T19:25:02.148Z,3.1
2022-10-05T19:27:00.415Z,3.4
2022-10-05T19:28:59.261Z,5.6
2022-10-05T19:30:57.891Z,3.1
2022-10-05T19:33:12.293Z,2.8
2022-10-05T19:35:05.080Z,2.3
2022-10-05T19:36:56.509Z,3.3
2022-10-05T19:38:59.839Z,3.4
2022-10-05T19:40:56.444Z,5.9
2022-10-05T19:43:08.700Z,2.5
2022-10-05T19:44:59.447Z,4.2
2022-10-05T19:46:55.431Z,4.8
2022-10-05T19:48:53.086Z,2.7
2022-10-05T19:50:53.865Z,2.1
2022-10-05T19:52:50.427Z,2.7
2022-10-05T19:55:02.070Z,3
2022-10-05T19:56:50.971Z,2.8
2022-10-05T19:58:50.686Z,2.7
2022-10-05T20:00:55.205Z,3
2022-10-05T20:02:50.090Z,2.3
2022-10-05T20:04:49.402Z,3.5
2022-10-05T20:06:49.578Z,2.7
2022-10-05T20:08:51.761Z,2.3
2022-10-05T20:11:04.755Z,3.8
2022-10-05T20:12:52.003Z,2.6
2022-10-05T20:15:06.356Z,3.6
2022-10-05T20:17:19.486Z,3.2
2022-10-05T20:18:50.017Z,2.6
2022-10-05T20:20:50.037Z,4.5
2022-10-05T20:22:50.146Z,3.2
2022-10-05T20:24:52.379Z,2.8
2022-10-05T20:26:52.329Z,5
2022-10-05T20:28:50.593Z,5.5
2022-10-05T20:30:50.418Z,3.3
2022-10-05T20:32:51.981Z,2.9
2022-10-05T20:34:50.770Z,2.3
2022-10-05T20:36:51.265Z,4.2
2022-10-05T20:38:50.789Z,3.3
2022-10-05T20:40:50.936Z,2.8
2022-10-05T20:42:50.955Z,6.7
2022-10-05T20:44:56.558Z,3.6
2022-10-05T20:46:51.375Z,4.3
2022-10-05T20:48:51.243Z,5.9
2022-10-05T20:50:51.303Z,4.3
2022-10-05T20:52:51.436Z,3.6
2022-10-05T20:54:51.459Z,4.6
2022-10-05T20:56:52.214Z,4.6
2022-10-05T20:58:52.283Z,3.1
2022-10-05T21:00:51.844Z,3.4
2022-10-05T21:02:51.768Z,5.8
2022-10-05T21:04:52.006Z,4.2
2022-10-05T21:06:52.678Z,2.7
2022-10-05T21:08:52.099Z,4.6
2022-10-05T21:10:52.127Z,5.1
2022-10-05T21:12:52.247Z,3.6
2022-10-05T21:14:52.357Z,2.9
2022-10-05T21:16:52.463Z,2.9
2022-10-05T21:18:52.532Z,6.2
2022-10-05T21:20:52.584Z,5.5
2022-10-05T21:22:52.744Z,3.3
2022-10-05T21:24:52.793Z,4.8
2022-10-05T21:26:52.946Z,2.3
2022-10-05T21:28:53.073Z,4.9
2022-10-05T21:30:53.692Z,3.1
2022-10-05T21:34:53.298Z,5.8
2022-10-05T21:36:53.412Z,2.9
2022-10-05T21:38:54.918Z,1.9
2022-10-05T21:40:53.560Z,3.5
2022-10-05T21:42:53.678Z,3.2
2022-10-05T21:44:53.733Z,4.8
2022-10-05T21:46:54.768Z,4
2022-10-05T21:48:54.313Z,5.1
2022-10-05T21:50:53.976Z,4.4
2022-10-05T21:52:54.216Z,3
2022-10-05T21:54:54.178Z,6.8
2022-10-05T21:56:56.878Z,2.2
2022-10-05T21:58:54.496Z,3.1
2022-10-05T22:00:54.440Z,3.7
2022-10-05T22:02:54.480Z,2.6
2022-10-05T22:04:54.459Z,3.1
2022-10-05T22:06:55.313Z,4.5
2022-10-05T22:08:54.697Z,3
2022-10-05T22:10:55.392Z,4.5
2022-10-05T22:13:00.177Z,4.8
2022-10-05T22:14:54.846Z,7
2022-10-05T22:16:54.922Z,3.8
2022-10-05T22:18:54.988Z,2.4
2022-10-05T22:20:55.098Z,3.4
2022-10-05T22:22:55.150Z,2.5
2022-10-05T22:24:55.763Z,2.9
2022-10-05T22:26:55.388Z,2.8
2022-10-05T22:28:55.696Z,3.7
2022-10-05T22:30:56.318Z,2.8
2022-10-05T22:32:55.543Z,4.7
2022-10-05T22:34:55.705Z,3.9
2022-10-05T22:36:55.805Z,5.1
2022-10-05T22:38:55.858Z,1.9
2022-10-05T22:40:56.638Z,4
2022-10-05T22:42:56.710Z,3.2
2022-10-05T22:44:56.037Z,3.9
2022-10-05T22:46:56.158Z,2.4
2022-10-05T22:48:56.277Z,4.8
2022-10-05T22:50:56.323Z,3.8
2022-10-05T22:52:56.699Z,2.2
2022-10-05T22:54:56.486Z,2.8
2022-10-05T22:56:56.690Z,2.1
2022-10-05T22:58:57.035Z,6.3
2022-10-05T23:01:00.255Z,5.8
2022-10-05T23:02:56.923Z,5.2
2022-10-05T23:04:56.967Z,4.6
2022-10-05T23:06:57.061Z,4.8
2022-10-05T23:08:57.135Z,3
2022-10-05T23:11:00.612Z,3.3
2022-10-05T23:13:00.860Z,3.8
2022-10-05T23:14:57.370Z,3.4
2022-10-05T23:16:57.590Z,5.6
2022-10-05T23:18:57.643Z,2.3
2022-10-05T23:20:57.556Z,5
2022-10-05T23:22:58.674Z,5.3
2022-10-05T23:24:57.688Z,5.1
2022-10-05T23:26:57.810Z,2.8
2022-10-05T23:28:58.143Z,1.9
2022-10-05T23:30:58.402Z,4.8
2022-10-05T23:32:57.978Z,3.4
2022-10-05T23:34:58.059Z,4.5
2022-10-05T23:36:58.265Z,3.6
2022-10-05T23:38:59.090Z,3.8
2022-10-05T23:40:58.314Z,3.6
2022-10-05T23:42:58.550Z,3.6
2022-10-05T23:44:58.461Z,5.1
2022-10-05T23:46:58.524Z,1.9
2022-10-05T23:48:58.582Z,1.8
2022-10-05T23:50:59.349Z,1.2
2022-10-05T23:52:58.717Z,2.6
2022-10-05T23:54:58.851Z,3.1
2022-10-05T23:56:59.189Z,1.8
2022-10-05T23:58:59.030Z,2.6
